Aérodrome :
LOGIN :

S'inscrire | Disclaimer

   EN    FR    IT 

 










Légende :    VFR   VFR Marginal   IFR   IFR Intensif   IFR Très Intensif
Visi : 
Plafond : 
>= 8 km
>= 3000ft
5 à 8 km
1000 à 3000 ft
1500m à 5 km
500 à 1000 ft
800 à 1500m
200 à 500 ft
< 800m
< 200 ft
Symboles :   Orages  Brouillard  Fortes neiges  Fortes précipitations  Vent > 20 kt
SIGMETs :   Divers  Orages  Givrage  Turbulence  Onde Orograph.  Cendres Volcan.







- Altitude de l'aérodrome : 38 ft
- Code IATA : BOH
- Voir les cartes d'approche


EGHH - Bournemouth

DERNIER METAR :
  • 181850Z 24003KT 5000 0500E R26/0450 PRFG MIFG BR FEW004 05/04 Q1016

METARs EXPIRÉS :
  • 181820Z 24003KT 4000 0800W R26/0250 PRFG MIFG BR FEW004 04/03 Q1015
  • 181750Z 25003KT 9999 MIFG FEW020 07/06 Q1015
  • 181720Z 25003KT 9999 FEW020 08/06 Q1015
  • 181650Z 24003KT 9999 FEW014 08/06 Q1014
  • 181620Z 21004KT 180V310 9999 9000E -SHRA SCT012 SCT030 07/06 Q1014 RESHRA

TAF AMD TAF EGHH
Valide du 18 à 18h jusqu'au 19 à 03h UTC


181831Z 1818/1903 VRB03KT 9999 FEW020
TEMPO 1818/1822 4000 BR MIFG
ATIS : +44 1202 364 151
Météo : +44 1202 364 158 (TAF)
Pas de NOTAMs connus pour ce terrain.



MET'MAP, la Météo Aéronautique d'un coup d'oeil ! - Copyright ORBIFLY Décembre 2007 - Disclaimer

ORBIFLY MET'MAP TEAM :

Programmation & Développement : Alexandra Zaïnal
Conception & Développement : Baudouin d'Aumeries
Co-Programmation & Développement : Marc-Olivier Méhu
Soutien technique & logistique : Manuel Goepfert

Contact : metmap@orbifly.com




SOURCES & CREDITS :

   NOAA